Weather at Bay Bridge Airport

Public forecast

Using degrees Fahrenheit for public forecast. Weather courtesy of forecast.io.

Closest aviation weather report (METAR) to Bay Bridge Airport

Closest report is Easton Airport / Newnam Field, 16.0 nm (29.6 km) SE. Retrieved 2020/10/01 11:50 UTC (1 hour ago):

KESN 011150Z 00000KT 10SM CLR 15/14 A2996

Closest aviation forecast (TAF) to Bay Bridge Airport

Closest forecast is Baltimore/Washington International Thurgood Marshall Airport, 19.8 nm (36.7 km) NW. Retrieved 2020/10/01 12:42 UTC (9 minutes ago):

TAF KBWI 011139Z 0112/0218 27004KT P6SM FEW150 FM011400 28006KT P6SM SKC FM012100 31005KT P6SM SCT080 FM012300 VRB03KT P6SM -SHRA BKN060 FM020800 34004KT P6SM OVC050 FM021400 32004KT P6SM FEW100